• Join FlightAware (Why Join?)
  • Login
  • US Flag 
03:03AM EST


 

Airport Tracker/Info


-or-


 

Live Flight TrackerFlight Track Log ✈ CPT7773 ✈ 14-Jan-2014 ✈ KCOD - KCPR

Flight Track Log - Related Links

Times and Time Zones

All times are in EST time to prevent confusion due to time zone crossing. See the CPT7773 flight status page for this flight to view local times or setup timezone preferences in your user account.

Time Position Orientation Groundspeed Altitude Reporting Facility
EST Latitude Longitude Course Direction KTS MPH feet Rate Location/Type
08:13PM 44.4883 -108.9247 121° Southeast 128 147 7,800  Level Salt Lake Center
08:14PM 44.4622 -108.8828 131° Southeast 135 155 8,900 1,020 Climbing Salt Lake Center
08:15PM 44.4289 -108.8306 132° Southeast 142 163 10,000 1,020 Climbing Salt Lake Center
08:16PM 44.3994 -108.7808 130° Southeast 153 176 11,000 900 Climbing Salt Lake Center
08:17PM 44.3711 -108.7339 130° Southeast 157 181 11,900 780 Climbing Salt Lake Center
08:18PM 44.4005 -108.7457 121° Southeast  Level FlightAware Approximate
08:18PM 44.3425 -108.6867 130° Southeast 159 183 12,700  Level Salt Lake Center
08:19PM 44.3117 -108.6378 131° Southeast 162 186 13,000 120 Climbing Salt Lake Center
08:20PM 44.2753 -108.5814 132° Southeast 174 200 13,000  Level Salt Lake Center
08:21PM 44.2353 -108.5217 133° Southeast 192 221 13,000  Level Salt Lake Center
08:22PM 44.1892 -108.4481 131° Southeast 204 235 13,000  Level Salt Lake Center
08:23PM 44.1511 -108.3872 131° Southeast 207 238 13,000  Level Salt Lake Center
08:24PM 44.1117 -108.3264 132° Southeast 209 241 13,000  Level Salt Lake Center
08:25PM 44.0739 -108.2661 131° Southeast 210 242 13,000  Level Salt Lake Center
08:26PM 44.0347 -108.2044 131° Southeast 211 243 13,000  Level Salt Lake Center
08:27PM 43.9961 -108.1431 131° Southeast 211 243 13,000  Level Salt Lake Center
08:28PM 43.9583 -108.0836 131° Southeast 210 242 13,000  Level Salt Lake Center
08:29PM 43.9203 -108.0242 132° Southeast 208 239 13,000  Level Salt Lake Center
08:30PM 43.8744 -107.9536 132° Southeast 207 238 13,000  Level Salt Lake Center
08:31PM 43.8375 -107.8942 131° Southeast 206 237 13,000  Level Salt Lake Center
08:32PM 43.8003 -107.8361 132° Southeast 204 235 13,000  Level Salt Lake Center
08:33PM 43.7631 -107.7769 131° Southeast 204 235 13,000  Level Salt Lake Center
08:34PM 43.7233 -107.7178 133° Southeast 207 238 13,000  Level Salt Lake Center
08:35PM 43.6847 -107.6578 132° Southeast 208 239 13,000  Level Salt Lake Center
08:36PM 43.6458 -107.5975 132° Southeast 209 241 13,000  Level Salt Lake Center
08:37PM 43.6078 -107.5375 131° Southeast 209 241 13,000  Level Salt Lake Center
08:38PM 43.5617 -107.4664 132° Southeast 209 241 13,000  Level Salt Lake Center
08:39PM 43.5231 -107.4039 130° Southeast 210 242 13,000  Level Salt Lake Center
08:40PM 43.4831 -107.3461 134° Southeast 211 243 13,000  Level Salt Lake Center
08:42PM 43.4444 -107.2850 131° Southeast 212 244 13,000  Level Salt Lake Center
08:43PM 43.4047 -107.2242 132° Southeast 214 246 13,000  Level Salt Lake Center
08:44PM 43.3658 -107.1656 132° Southeast 210 242 13,000  Level Salt Lake Center
08:45PM 43.3264 -107.1061 132° Southeast 211 243 13,000  Level Salt Lake Center
08:46PM 43.2883 -107.0467 131° Southeast 210 242 13,100  Climbing Salt Lake Center
08:47PM 43.2439 -106.9767 131° Southeast 204 235 13,000 -300 Descending Salt Lake Center
08:48PM 43.2047 -106.9156 131° Southeast 210 242 12,600 -540 Descending Salt Lake Center
08:49PM 43.1644 -106.8567 133° Southeast 218 251 11,900 -840 Descending Salt Lake Center
08:50PM 43.1189 -106.7878 132° Southeast 218 251 10,900 -840 Descending Salt Lake Center
08:51PM 43.0803 -106.7167 127° Southeast 210 242 10,100 -780 Descending Denver Center
08:52PM 43.0478 -106.6592 128° Southeast 204 235 9,200 -960 Descending Denver Center
08:53PM 43.0119 -106.5925 126° Southeast 199 229 8,200 -900 Descending Denver Center
08:54PM 42.9822 -106.5406 128° Southeast 190 219 7,400 -780 Descending Denver Center
08:55PM 42.9525 -106.4872 127° Southeast 171 197 6,700 -540 Descending Denver Center
08:56PM 42.9297 -106.4447 126° Southeast 160 184 6,400 -300 Descending Denver Center
08:58PM 42.9000 -106.4500 124° Southeast  Level FlightAware Approximate